Aviation Digital Data Service (ADDS)

Output produced by METARs form (2056 UTC 29 May 2017)
found at http://www.aviationweather.gov/adds/metars/
 
TAF MMCS 291637Z 2918/3018 10015KT P6SM SKC 
     FM292300 12012KT P6SM BKN030 
     TEMPO 3000/3004 5SM TSRA BKN030CB 
     FM300400 09012KT 5SM RA BKN020CB OVC080 
     FM301200 12010KT P6SM SCT030 BKN100
       
TAF AMD MMAA 292050Z 2921/3024 12010KT P6SM SCT015 SCT100 BKN300 TX30/3019Z TN24/3009Z 
     FM300000 09012KT P6SM BKN015CB OVC080 
     TEMPO 3000/3004 4SM TSRA 
     FM300400 00000KT 5SM RA SCT015CB BKN080 OVC300 
     FM301000 12012KT P6SM SCT020 BKN100 
     PROB40 3020/3024 5SM RA BKN015CB
       
TAF AMD MMAN 291845Z 2919/3018 12015KT P6SM SCT020 BKN080 
     TEMPO 2922/3002 5SM TSRA BKN020CB 
     FM300300 00000KT 5SM HZ BKN015 
     FM300900 00000KT 2SM DZ BR OVC010 
     FM301600 12010KT 5SM HZ OVC015
       
TAF MMAS 291648Z 2918/3018 07012KT P6SM SCT030 SCT220 
     BECMG 2920/2921 BKN030 BKN220 
     TEMPO 3000/3004 5SM TSRA BKN030CB 
     FM300600 10005KT P6SM BKN120 
     FM301600 10010KT P6SM SCT030 BKN120
       
TAF MMBT 291637Z 2918/3018 12010KT 3SM RA BKN030 OVC070 
     TEMPO 2919/2923 1SM TSRA BKN010CB OVC070 
     FM292300 12008KT 5SM RA BKN040 OVC090 
     BECMG 3001/3002 08010KT BKN030CB OVC070 
     TEMPO 3010/3014 2SM TSRA
       
TAF MMCB 291637Z 2918/3018 20008KT 6SM HZ BKN020 BKN140 
     TEMPO 2921/3001 5SM VC RA BKN020CB 
     FM300300 03005KT 6SM HZ SCT020 BKN080 BKN220 
     TEMPO 3010/3014 3SM BR HZ 
     FM301600 20006KT 5SM HZ SCT020 BKN140 BKN220
       
TAF MMCE 291712Z 2918/3018 13012KT 6SM HZ SCT020 BKN080 BKN200 
     BECMG 2919/2920 03015KT 
     FM300200 12012KT 6SM HZ SCT020CB BKN070 BKN200 
     TEMPO 3002/3006 2SM TSRA BKN010CB OVC070 
     FM300700 13015KT 5SM HZ BKN015 BKN120 BKN220 
     FM301600 10012KT 6SM HZ BKN020 BKN120 BKN220
       
TAF MMCL 291652Z 2918/3018 12010KT P6SM SKC 
     FM292000 23010KT P6SM SKC 
     FM301200 09010KT 5SM HZ SCT015 
     TEMPO 3013/3017 BKN010
       
TAF MMCM 291712Z 2918/3018 12015KT P6SM SCT015 SCT090 BKN220 
     FM300300 10012KT P6SM SCT012 BKN220 
     TEMPO 3010/3014 BKN010 
     FM301500 11015KT P6SM BKN018 BKN120 BKN220 
     TEMPO 3015/3018 5SM RA
       
TAF MMCN 291657Z 2918/3018 24010KT P6SM SCT300 
     FM300300 15006KT P6SM BKN260 
     FM301600 17010KT P6SM SKC
       
TAF MMCP 291712Z 2918/3018 09010G20KT 6SM HZ SCT030 BKN090 BKN200 
     BECMG 2919/2920 35010G20KT 
     TEMPO 3001/3005 5SM TSRA BKN020CB 
     FM300700 12010KT 6SM HZ SCT015 BKN120 BKN220 
     BECMG 3016/3017 10012KT
       
TAF MMCS 291637Z 2918/3018 10015KT P6SM SKC 
     FM292300 12012KT P6SM BKN030 
     TEMPO 3000/3004 5SM TSRA BKN030CB 
     FM300400 09012KT 5SM RA BKN020CB OVC080 
     FM301200 12010KT P6SM SCT030 BKN100
       
TAF COR MMCU 291844Z 2918/3018 05012KT P6SM BKN035 
     TEMPO 2920/2924 4SM TSRA BKN030CB 
     FM300100 06015KT 3SM TSRA BKN020CB OVC030 
     FM300600 12010KT 5SM RA OVC020 
     FM301200 12010KT 5SM HZ BKN025
       
TAF AMD MMCV 291318Z 2913/3006 30005KT 2SM TSRA OVC020CB 
     FM291500 34012KT 5SM RA BKN020 OVC080 
     FM291700 02012KT P6SM BKN030 BKN080 
     TEMPO 2918/2922 5SM RA 
     FM292300 04010KT 5SM RA BKN020 OVC080
       
TAF MMCZ 291646Z 2918/3024 13015KT P6SM SCT015 BKN250 
     FM300300 12010KT P6SM BKN250 
     FM301400 12015KT P6SM BKN015 
     FM301800 12015KT P6SM SCT020 BKN250
       
TAF MMDO 291657Z 2918/3018 08010KT P6SM SCT030 BKN140 
     FM300300 00000KT P6SM SCT140 
     PROB40 3003/3006 SCT030CB 
     FM300700 00000KT P6SM SKC 
     FM301600 19008KT P6SM SKC
       
TAF MMEP 291648Z 2918/3018 33010KT P6SM SKC 
     FM300300 07005KT P6SM SKC 
     BECMG 3010/3011 3SM BR HZ 
     FM301500 30006KT P6SM SKC
       
TAF MMGL 291706Z 2918/3024 23012KT P6SM SKC TX33/2921Z TN17/3012Z 
     FM292100 24010G20KT P6SM SCT030 
     FM300100 00000KT P6SM SCT035 
     TEMPO 3002/3006 VC CB 
     FM301200 00000KT 5SM HZ SKC 
     FM302000 23012KT P6SM BKN030
       
TAF MMGM 291657Z 2918/3018 24010KT P6SM SCT300 
     FM300300 19006KT P6SM BKN260 
     FM301600 15008KT P6SM SKC
       
TAF MMHO 291652Z 2918/3018 23012KT P6SM BKN250 
     FM300300 00000KT P6SM BKN250
       
TAF MMIA 291648Z 2918/3018 24012KT P6SM SCT250 
     FM300300 04005KT P6SM SKC 
     BECMG 3010/3011 3SM BR HZ 
     FM301500 20006KT P6SM SCT250
       
TAF MMIO 291637Z 2918/3018 02010KT P6SM SCT040 BKN250 
     TEMPO 2922/3002 5SM TSRA BKN030CB 
     FM300900 00000KT 2SM BR BKN010 
     FM301400 12010KT 5SM HZ SCT020 BKN250
       
TAF MMLM 291657Z 2918/3018 23012KT P6SM SKC 
     FM300300 16006KT P6SM SCT250 
     BECMG 3010/3011 3SM BR HZ SCT010 
     TEMPO 3011/3015 1/2SM FG VV002 
     FM301600 16008KT P6SM SKC
       
TAF MMLO 291648Z 2918/3018 06010KT 6SM HZ SCT030 
     TEMPO 2922/3002 5SM VC RA BKN030 
     FM300400 00000KT 6SM HZ SKC 
     TEMPO 3010/3014 4SM HZ BKN010 
     FM301600 07006KT 6SM HZ SKC
       
TAF MMLP 291652Z 2918/3018 20012KT P6SM SKC 
     FM292000 34012KT P6SM SKC 
     FM301200 23010KT P6SM SCT025
       
TAF MMLT 291657Z 2918/3018 15010KT P6SM SCT300 
     BECMG 2921/2922 BKN280 
     FM300300 26006KT P6SM BKN280 
     BECMG 3007/3008 SKC 
     FM301600 15008KT P6SM SKC
       
TAF MMMA 291722Z 2918/3018 09010KT P6SM BKN025 BKN090 OVC200 
     BECMG 2920/2921 SCT025 BKN220 
     FM300300 08006KT P6SM SCT250 
     TEMPO 3011/3015 4SM BR HZ SCT010 
     FM301600 07010KT 6SM HZ SCT020
       
TAF MMMD 291646Z 2918/3024 12015KT P6SM BKN025 BKN080 OVC300 TX35/2920Z TN25/3012Z 
     FM292100 12012KT P6SM SCT030 BKN250 
     FM301200 00000KT 5SM HZ BKN015 
     FM301800 12015KT P6SM SCT025 BKN250
       
TAF MMML 291652Z 2918/3018 06010KT P6SM BKN200 
     FM300300 12010KT P6SM BKN250
       
TAF MMMM 291706Z 2918/3024 20010KT P6SM BKN030 
     TEMPO 2923/3003 5SM TSRA BKN030CB 
     FM300400 00000KT P6SM SCT020 BKN080 
     FM301200 00000KT 5SM HZ SCT030 
     FM302100 20010KT 5SM VC RA BKN030CB 
     PROB40 3022/3024 4SM TSRA
       
TAF COR MMMT 291839Z 2918/3018 18010KT P6SM BKN020 BKN080 BKN200 
     BECMG 2920/2921 6SM RA BKN020CB BKN080 OVC200 
     TEMPO 3001/3005 2SM TSRA BKN010CB OVC070 
     FM300700 10005KT 3SM BR HZ BKN010 OVC070 
     FM301500 13006KT 5SM HZ BKN015 OVC070
       
TAF MMMV 291637Z 2918/3018 06010KT P6SM BKN040 
     TEMPO 2921/3001 4SM TSRA BKN030CB 
     FM300600 00000KT P6SM SCT040 BKN250 
     TEMPO 3012/3016 BKN020
       
TAF MMMX 291727Z 2918/3024 34010KT P6SM BKN025 BKN080 TX26/2921Z TN14/3012Z 
     FM292000 02012KT 5SM VC RA BKN020CB OVC080 
     TEMPO 2920/2924 4SM TSRA 
     FM300000 04012KT 4SM TSRA BKN020CB OVC030 
     FM300400 06010KT 5SM HZ BKN020 OVC080 
     PROB40 3010/3014 6SM VC RA 
     FM301800 12010KT P6SM BKN020 BKN080 
     PROB40 3020/3024 4SM TSRA OVC015CB
       
TAF MMMY 291637Z 2918/3024 04010KT 6SM HZ BKN020 BKN080 TX29/2920Z TN20/3012Z 
     FM292000 06010KT 5SM VC RA BKN015 OVC020 
     TEMPO 2922/3002 4SM TSRA BKN020CB 
     FM300300 04010KT 4SM DZ BR BKN010 OVC020 
     TEMPO 3010/3014 2SM DZ OVC010 
     FM301500 12010KT 5SM HZ OVC020 
     FM302100 12015KT P6SM BKN030
       
TAF MMMZ 291652Z 2918/3024 18010KT P6SM SKC TX30/2920Z TN22/3012Z 
     FM300300 00000KT P6SM SKC 
     FM301200 00000KT 4SM HZ BKN015 
     FM301600 18010KT P6SM SKC
       
TAF MMNL 291722Z 2918/3018 07010KT P6SM BKN020 BKN200 
     FM300200 13010KT P6SM SCT020 BKN220 
     TEMPO 3011/3015 4SM BR HZ SCT010 BKN220 
     FM301600 11010KT P6SM BKN020 BKN250
       
TAF MMOX 291637Z 2918/3018 16008KT 6SM -RA BKN020 OVC070 
     TEMPO 2921/3001 3SM TSRA BKN010CB OVC070 
     FM300300 00000KT 4SM RA BKN015 OVC070 
     TEMPO 3003/3007 3SM TSRA BKN015CB 
     FM301500 16006KT 6SM -RA HZ BKN020 BKN070 OVC180
       
TAF MMPA 291722Z 2918/3018 08008KT 5SM HZ BKN020CB BKN070 BKN220 
     TEMPO 2919/2923 2SM TSRA BKN010CB OVC070 
     FM300300 09005KT 3SM BR HZ BKN010 OVC030 
     TEMPO 3003/3007 1SM RA BKN010CB 
     FM301000 00000KT 1SM -DZ BR BKN004 OVC010 
     FM301500 35005KT 3SM -RA BR BKN010 OVC020
       
TAF MMPB 291637Z 2918/3018 20010KT P6SM -RA BKN020 BKN080 
     BECMG 2920/2921 5SM RA BKN020CB 
     TEMPO 2922/3002 3SM TSRA OVC015CB 
     FM300400 00000KT 5SM HZ BKN015 OVC070 
     TEMPO 3014/3018 4SM RA
       
TAF MMPG 291722Z 2918/3018 10010KT P6SM BKN025 BKN250 
     PROB40 2920/2924 6SM RA 
     FM300300 10006KT 6SM HZ SCT030 BKN250 
     BECMG 3006/3007 3SM -RA BR BKN010 OVC030 
     TEMPO 3011/3015 1SM RA BR BKN004 OVC010 
     FM301600 12010KT 5SM HZ BKN012 OVC030
       
TAF AMD MMPN 292025Z 2920/3018 20010KT 5SM HZ OVC030CB 
     TEMPO 2921/3001 4SM TSRA 
     FM300300 00000KT 5SM RA BKN030 OVC100 
     FM300600 00000KT 5SM HZ SCT030 BKN100 
     TEMPO 3010/3014 3SM BR HZ BKN010 
     FM301600 14006KT P6SM SCT280
       
TAF MMPQ 291712Z 2918/3018 20005KT 4SM HZ SCT030 BKN080 OVC200 
     BECMG 2920/2921 BKN030CB 
     TEMPO 2923/3003 3SM TSRA BKN010CB OVC070 
     FM300700 12005KT 4SM BR HZ BKN015 OVC070 
     TEMPO 3010/3014 2SM BR HZ
       
TAF MMPR 291706Z 2918/3024 23012KT P6SM SKC TX28/2919Z TN20/3012Z 
     FM300600 00000KT P6SM BKN015 
     FM301400 00000KT P6SM SKC 
     FM301800 20010KT P6SM SKC
       
TAF MMPS 291637Z 2918/3018 15010KT 6SM -RA BKN030 OVC070 
     TEMPO 2919/2923 3SM TSRA BKN020CB OVC080 
     FM300300 10010KT 5SM RA BKN015CB OVC080 
     TEMPO 3005/3009 2SM TSRA BKN010CB OVC070 
     FM301100 09008KT 5SM -RA BKN030 OVC070
       
TAF AMD MMQT 291832Z 2918/3018 26009KT 6SM -RA BKN020CB OVC100 
     TEMPO 2919/2923 4SM TSRA 
     FM292300 06010KT 5SM -RA BKN020CB OVC080 
     TEMPO 3000/3004 4SM TSRA 
     FM300500 06006KT 5SM HZ BKN015 BKN070 
     TEMPO 3011/3015 3SM BR HZ 
     FM301600 05010KT 6SM HZ SCT020 BKN070
       
TAF MMRX 291722Z 2918/3018 05010KT P6SM BKN020 BKN120 BKN250 
     FM300300 09008KT 6SM HZ SCT015 SCT250 
     TEMPO 3011/3015 4SM BR HZ BKN010 
     FM301500 10010KT P6SM BKN020
       
TAF MMSD 291657Z 2918/3018 13010KT P6SM SKC 
     FM300300 29006KT P6SM SKC 
     FM301700 13010KT P6SM SKC
       
TAF MMSL 291657Z 2918/3018 14010KT P6SM SKC 
     FM300300 30006KT P6SM SKC 
     FM301700 14010KT P6SM SKC
       
TAF COR MMSP 291822Z 2918/3024 12010KT P6SM BKN025 TX30/2920Z TN16/3012Z 
     TEMPO 2919/2923 4SM TSRA BKN025CB 
     FM300000 04010KT 5SM RA BKN020CB OVC080 
     PROB40 3000/3004 3SM RA 
     FM300600 00000KT 5SM HZ OVC015 
     FM301500 12010KT P6SM SCT020 
     PROB40 3020/3024 4SM TSRA BKN025CB
       
TAF MMTC 291637Z 2918/3018 06010KT P6SM SCT030 
     FM292100 12012KT P6SM BKN030 
     TEMPO 2922/3002 4SM TSRA BKN025CB 
     FM300200 06010KT 5SM RA BKN025 OVC080 
     FM300900 00000KT P6SM SCT020 BKN100
       
TAF MMTG 291646Z 2918/3018 24010KT 4SM HZ BKN015 OVC070 
     FM292000 28010G20KT 5SM VC RA BKN020 OVC080 
     TEMPO 2921/3001 3SM RA BKN015CB 
     FM300100 00000KT 5SM RA BKN020 OVC080 
     FM301200 00000KT 2SM BR BKN010 
     FM301600 00000KT 5SM HZ OVC020
       
TAF MMTJ 291652Z 2918/3024 00000KT 5SM HZ OVC015 TX20/2922Z TN14/3012Z 
     FM292000 28010KT P6SM SCT025 BKN250 
     FM300600 00000KT 5SM HZ OVC015 
     FM301800 28010KT P6SM BKN250
       
TAF AMD MMTM 291854Z 2919/3018 36030G40KT 1SM +RA OVC005CB 
     FM292000 34015KT 2SM TSRA BKN010CB OVC020 
     FM292100 03015KT 4SM RA BKN015 OVC070 
     FM292200 12012KT 5SM HZ BKN015 BKN080 
     PROB40 2922/3001 5SM RA 
     FM300300 00000KT 5SM HZ BKN015
       
TAF MMTO 291727Z 2918/3024 23012KT 5SM HZ BKN015 TX23/2920Z TN10/3012Z 
     FM292000 23010KT 5SM RA BKN020CB 
     TEMPO 2921/3001 3SM TSRA OVC015CB 
     FM300300 00000KT 5SM HZ BKN015 BKN070 
     TEMPO 3012/3016 2SM BR 
     FM301800 04012KT P6SM BKN020 
     PROB40 3020/3024 4SM TSRA BKN015CB
       
TAF COR MMTP 291823Z 2918/3024 22010KT 6SM RA BKN030 BKN100 
     TEMPO 2921/3001 3SM RA BKN020CB 
     FM300200 00000KT 4SM RA BKN020CB OVC080 
     FM300600 00000KT 5SM HZ SCT020 BKN100 
     PROB40 3014/3020 4SM RA BKN015CB
       
TAF MMUN 291646Z 2918/3024 12015KT P6SM SCT020 BKN300 TX31/2919Z TN27/3012Z 
     FM300100 12010KT P6SM SCT015 BKN250 
     FM301500 12015KT P6SM BKN015 
     FM301900 13015KT P6SM SCT015 BKN250
       
TAF MMVA 291712Z 2918/3018 20006KT P6SM SCT020 BKN070 OVC200 
     BECMG 2921/2922 5SM -RA SCT015CB BKN070 OVC200 
     TEMPO 2922/3002 3SM TSRA BKN015CB 
     FM300600 12005KT 3SM BR HZ BKN010 BKN040 OVC100 
     TEMPO 3010/3014 2SM BR HZ BKN006 OVC010 
     FM301500 13006KT 4SM HZ BKN010 OVC070
       
TAF MMVR 291727Z 2918/3018 20010KT 5SM VC RA BKN030 OVC070 TX32/2920Z TN24/3012Z 
     TEMPO 2921/3001 3SM TSRA BKN015CB 
     FM300100 04010KT 2SM RA BKN010 OVC030 
     FM300600 00000KT 5SM RA BKN020 OVC080 
     FM301200 18012KT 5SM HZ BKN015
       
TAF MMZC 291706Z 2918/3024 06010KT P6SM SCT030 TX31/2920Z TN12/3012Z 
     FM292100 04010KT P6SM BKN030 
     TEMPO 2923/3003 5SM TSRA BKN030CB 
     FM300300 00000KT 5SM RA BKN020 OVC080 
     FM300900 00000KT 5SM HZ SCT020 BKN250 
     FM302000 20015KT P6SM BKN030
       
TAF MMZH 291637Z 2918/3018 22010KT 6SM HZ BKN020 BKN080 BKN250 
     BECMG 2920/2921 5SM -RA BKN020CB 
     TEMPO 3000/3004 4SM TSRA 
     FM300600 08005KT 5SM -RA BKN015 BKN070 BKN250 
     FM301500 13010KT 6SM HZ SCT015 BKN070 BKN250
       
TAF MMZO 291706Z 2918/3018 23012KT P6SM SKC 
     FM300300 00000KT P6SM SKC
       
TAF AMD MMAA 292050Z 2921/3024 12010KT P6SM SCT015 SCT100 BKN300 TX30/3019Z TN24/3009Z 
     FM300000 09012KT P6SM BKN015CB OVC080 
     TEMPO 3000/3004 4SM TSRA 
     FM300400 00000KT 5SM RA SCT015CB BKN080 OVC300 
     FM301000 12012KT P6SM SCT020 BKN100 
     PROB40 3020/3024 5SM RA BKN015CB
       
TAF AMD MMAN 291845Z 2919/3018 12015KT P6SM SCT020 BKN080 
     TEMPO 2922/3002 5SM TSRA BKN020CB 
     FM300300 00000KT 5SM HZ BKN015 
     FM300900 00000KT 2SM DZ BR OVC010 
     FM301600 12010KT 5SM HZ OVC015
       
TAF MMAS 291648Z 2918/3018 07012KT P6SM SCT030 SCT220 
     BECMG 2920/2921 BKN030 BKN220 
     TEMPO 3000/3004 5SM TSRA BKN030CB 
     FM300600 10005KT P6SM BKN120 
     FM301600 10010KT P6SM SCT030 BKN120
       
TAF MMBT 291637Z 2918/3018 12010KT 3SM RA BKN030 OVC070 
     TEMPO 2919/2923 1SM TSRA BKN010CB OVC070 
     FM292300 12008KT 5SM RA BKN040 OVC090 
     BECMG 3001/3002 08010KT BKN030CB OVC070 
     TEMPO 3010/3014 2SM TSRA
       
TAF MMCB 291637Z 2918/3018 20008KT 6SM HZ BKN020 BKN140 
     TEMPO 2921/3001 5SM VC RA BKN020CB 
     FM300300 03005KT 6SM HZ SCT020 BKN080 BKN220 
     TEMPO 3010/3014 3SM BR HZ 
     FM301600 20006KT 5SM HZ SCT020 BKN140 BKN220
       
TAF MMCE 291712Z 2918/3018 13012KT 6SM HZ SCT020 BKN080 BKN200 
     BECMG 2919/2920 03015KT 
     FM300200 12012KT 6SM HZ SCT020CB BKN070 BKN200 
     TEMPO 3002/3006 2SM TSRA BKN010CB OVC070 
     FM300700 13015KT 5SM HZ BKN015 BKN120 BKN220 
     FM301600 10012KT 6SM HZ BKN020 BKN120 BKN220
       
TAF MMCL 291652Z 2918/3018 12010KT P6SM SKC 
     FM292000 23010KT P6SM SKC 
     FM301200 09010KT 5SM HZ SCT015 
     TEMPO 3013/3017 BKN010
       
TAF MMCM 291712Z 2918/3018 12015KT P6SM SCT015 SCT090 BKN220 
     FM300300 10012KT P6SM SCT012 BKN220 
     TEMPO 3010/3014 BKN010 
     FM301500 11015KT P6SM BKN018 BKN120 BKN220 
     TEMPO 3015/3018 5SM RA
       
TAF MMCN 291657Z 2918/3018 24010KT P6SM SCT300 
     FM300300 15006KT P6SM BKN260 
     FM301600 17010KT P6SM SKC
       
TAF MMCP 291712Z 2918/3018 09010G20KT 6SM HZ SCT030 BKN090 BKN200 
     BECMG 2919/2920 35010G20KT 
     TEMPO 3001/3005 5SM TSRA BKN020CB 
     FM300700 12010KT 6SM HZ SCT015 BKN120 BKN220 
     BECMG 3016/3017 10012KT
       
TAF MMCS 291637Z 2918/3018 10015KT P6SM SKC 
     FM292300 12012KT P6SM BKN030 
     TEMPO 3000/3004 5SM TSRA BKN030CB 
     FM300400 09012KT 5SM RA BKN020CB OVC080 
     FM301200 12010KT P6SM SCT030 BKN100
       
TAF COR MMCU 291844Z 2918/3018 05012KT P6SM BKN035 
     TEMPO 2920/2924 4SM TSRA BKN030CB 
     FM300100 06015KT 3SM TSRA BKN020CB OVC030 
     FM300600 12010KT 5SM RA OVC020 
     FM301200 12010KT 5SM HZ BKN025
       
TAF AMD MMCV 291318Z 2913/3006 30005KT 2SM TSRA OVC020CB 
     FM291500 34012KT 5SM RA BKN020 OVC080 
     FM291700 02012KT P6SM BKN030 BKN080 
     TEMPO 2918/2922 5SM RA 
     FM292300 04010KT 5SM RA BKN020 OVC080
       
TAF MMCZ 291646Z 2918/3024 13015KT P6SM SCT015 BKN250 
     FM300300 12010KT P6SM BKN250 
     FM301400 12015KT P6SM BKN015 
     FM301800 12015KT P6SM SCT020 BKN250
       
TAF MMDO 291657Z 2918/3018 08010KT P6SM SCT030 BKN140 
     FM300300 00000KT P6SM SCT140 
     PROB40 3003/3006 SCT030CB 
     FM300700 00000KT P6SM SKC 
     FM301600 19008KT P6SM SKC
       
TAF MMEP 291648Z 2918/3018 33010KT P6SM SKC 
     FM300300 07005KT P6SM SKC 
     BECMG 3010/3011 3SM BR HZ 
     FM301500 30006KT P6SM SKC
       
TAF MMGL 291706Z 2918/3024 23012KT P6SM SKC TX33/2921Z TN17/3012Z 
     FM292100 24010G20KT P6SM SCT030 
     FM300100 00000KT P6SM SCT035 
     TEMPO 3002/3006 VC CB 
     FM301200 00000KT 5SM HZ SKC 
     FM302000 23012KT P6SM BKN030
       
TAF MMGM 291657Z 2918/3018 24010KT P6SM SCT300 
     FM300300 19006KT P6SM BKN260 
     FM301600 15008KT P6SM SKC
       
TAF MMHO 291652Z 2918/3018 23012KT P6SM BKN250 
     FM300300 00000KT P6SM BKN250
       
TAF MMIA 291648Z 2918/3018 24012KT P6SM SCT250 
     FM300300 04005KT P6SM SKC 
     BECMG 3010/3011 3SM BR HZ 
     FM301500 20006KT P6SM SCT250
       
TAF MMIO 291637Z 2918/3018 02010KT P6SM SCT040 BKN250 
     TEMPO 2922/3002 5SM TSRA BKN030CB 
     FM300900 00000KT 2SM BR BKN010 
     FM301400 12010KT 5SM HZ SCT020 BKN250
       
TAF MMLM 291657Z 2918/3018 23012KT P6SM SKC 
     FM300300 16006KT P6SM SCT250 
     BECMG 3010/3011 3SM BR HZ SCT010 
     TEMPO 3011/3015 1/2SM FG VV002 
     FM301600 16008KT P6SM SKC
       
TAF MMLO 291648Z 2918/3018 06010KT 6SM HZ SCT030 
     TEMPO 2922/3002 5SM VC RA BKN030 
     FM300400 00000KT 6SM HZ SKC 
     TEMPO 3010/3014 4SM HZ BKN010 
     FM301600 07006KT 6SM HZ SKC
       
TAF MMLP 291652Z 2918/3018 20012KT P6SM SKC 
     FM292000 34012KT P6SM SKC 
     FM301200 23010KT P6SM SCT025
       
TAF MMLT 291657Z 2918/3018 15010KT P6SM SCT300 
     BECMG 2921/2922 BKN280 
     FM300300 26006KT P6SM BKN280 
     BECMG 3007/3008 SKC 
     FM301600 15008KT P6SM SKC
       
TAF MMMA 291722Z 2918/3018 09010KT P6SM BKN025 BKN090 OVC200 
     BECMG 2920/2921 SCT025 BKN220 
     FM300300 08006KT P6SM SCT250 
     TEMPO 3011/3015 4SM BR HZ SCT010 
     FM301600 07010KT 6SM HZ SCT020
       
TAF MMMD 291646Z 2918/3024 12015KT P6SM BKN025 BKN080 OVC300 TX35/2920Z TN25/3012Z 
     FM292100 12012KT P6SM SCT030 BKN250 
     FM301200 00000KT 5SM HZ BKN015 
     FM301800 12015KT P6SM SCT025 BKN250
       
TAF MMML 291652Z 2918/3018 06010KT P6SM BKN200 
     FM300300 12010KT P6SM BKN250
       
TAF MMMM 291706Z 2918/3024 20010KT P6SM BKN030 
     TEMPO 2923/3003 5SM TSRA BKN030CB 
     FM300400 00000KT P6SM SCT020 BKN080 
     FM301200 00000KT 5SM HZ SCT030 
     FM302100 20010KT 5SM VC RA BKN030CB 
     PROB40 3022/3024 4SM TSRA
       
TAF COR MMMT 291839Z 2918/3018 18010KT P6SM BKN020 BKN080 BKN200 
     BECMG 2920/2921 6SM RA BKN020CB BKN080 OVC200 
     TEMPO 3001/3005 2SM TSRA BKN010CB OVC070 
     FM300700 10005KT 3SM BR HZ BKN010 OVC070 
     FM301500 13006KT 5SM HZ BKN015 OVC070
       
TAF MMMV 291637Z 2918/3018 06010KT P6SM BKN040 
     TEMPO 2921/3001 4SM TSRA BKN030CB 
     FM300600 00000KT P6SM SCT040 BKN250 
     TEMPO 3012/3016 BKN020
       
TAF MMMX 291727Z 2918/3024 34010KT P6SM BKN025 BKN080 TX26/2921Z TN14/3012Z 
     FM292000 02012KT 5SM VC RA BKN020CB OVC080 
     TEMPO 2920/2924 4SM TSRA 
     FM300000 04012KT 4SM TSRA BKN020CB OVC030 
     FM300400 06010KT 5SM HZ BKN020 OVC080 
     PROB40 3010/3014 6SM VC RA 
     FM301800 12010KT P6SM BKN020 BKN080 
     PROB40 3020/3024 4SM TSRA OVC015CB
       
TAF MMMY 291637Z 2918/3024 04010KT 6SM HZ BKN020 BKN080 TX29/2920Z TN20/3012Z 
     FM292000 06010KT 5SM VC RA BKN015 OVC020 
     TEMPO 2922/3002 4SM TSRA BKN020CB 
     FM300300 04010KT 4SM DZ BR BKN010 OVC020 
     TEMPO 3010/3014 2SM DZ OVC010 
     FM301500 12010KT 5SM HZ OVC020 
     FM302100 12015KT P6SM BKN030
       
TAF MMMZ 291652Z 2918/3024 18010KT P6SM SKC TX30/2920Z TN22/3012Z 
     FM300300 00000KT P6SM SKC 
     FM301200 00000KT 4SM HZ BKN015 
     FM301600 18010KT P6SM SKC
       
TAF MMNL 291722Z 2918/3018 07010KT P6SM BKN020 BKN200 
     FM300200 13010KT P6SM SCT020 BKN220 
     TEMPO 3011/3015 4SM BR HZ SCT010 BKN220 
     FM301600 11010KT P6SM BKN020 BKN250
       
TAF MMOX 291637Z 2918/3018 16008KT 6SM -RA BKN020 OVC070 
     TEMPO 2921/3001 3SM TSRA BKN010CB OVC070 
     FM300300 00000KT 4SM RA BKN015 OVC070 
     TEMPO 3003/3007 3SM TSRA BKN015CB 
     FM301500 16006KT 6SM -RA HZ BKN020 BKN070 OVC180
       
TAF MMPA 291722Z 2918/3018 08008KT 5SM HZ BKN020CB BKN070 BKN220 
     TEMPO 2919/2923 2SM TSRA BKN010CB OVC070 
     FM300300 09005KT 3SM BR HZ BKN010 OVC030 
     TEMPO 3003/3007 1SM RA BKN010CB 
     FM301000 00000KT 1SM -DZ BR BKN004 OVC010 
     FM301500 35005KT 3SM -RA BR BKN010 OVC020
       
TAF MMPB 291637Z 2918/3018 20010KT P6SM -RA BKN020 BKN080 
     BECMG 2920/2921 5SM RA BKN020CB 
     TEMPO 2922/3002 3SM TSRA OVC015CB 
     FM300400 00000KT 5SM HZ BKN015 OVC070 
     TEMPO 3014/3018 4SM RA
       
TAF MMPG 291722Z 2918/3018 10010KT P6SM BKN025 BKN250 
     PROB40 2920/2924 6SM RA 
     FM300300 10006KT 6SM HZ SCT030 BKN250 
     BECMG 3006/3007 3SM -RA BR BKN010 OVC030 
     TEMPO 3011/3015 1SM RA BR BKN004 OVC010 
     FM301600 12010KT 5SM HZ BKN012 OVC030
       
TAF AMD MMPN 292025Z 2920/3018 20010KT 5SM HZ OVC030CB 
     TEMPO 2921/3001 4SM TSRA 
     FM300300 00000KT 5SM RA BKN030 OVC100 
     FM300600 00000KT 5SM HZ SCT030 BKN100 
     TEMPO 3010/3014 3SM BR HZ BKN010 
     FM301600 14006KT P6SM SCT280
       
TAF MMPQ 291712Z 2918/3018 20005KT 4SM HZ SCT030 BKN080 OVC200 
     BECMG 2920/2921 BKN030CB 
     TEMPO 2923/3003 3SM TSRA BKN010CB OVC070 
     FM300700 12005KT 4SM BR HZ BKN015 OVC070 
     TEMPO 3010/3014 2SM BR HZ
       
TAF MMPR 291706Z 2918/3024 23012KT P6SM SKC TX28/2919Z TN20/3012Z 
     FM300600 00000KT P6SM BKN015 
     FM301400 00000KT P6SM SKC 
     FM301800 20010KT P6SM SKC
       
TAF MMPS 291637Z 2918/3018 15010KT 6SM -RA BKN030 OVC070 
     TEMPO 2919/2923 3SM TSRA BKN020CB OVC080 
     FM300300 10010KT 5SM RA BKN015CB OVC080 
     TEMPO 3005/3009 2SM TSRA BKN010CB OVC070 
     FM301100 09008KT 5SM -RA BKN030 OVC070
       
TAF AMD MMQT 291832Z 2918/3018 26009KT 6SM -RA BKN020CB OVC100 
     TEMPO 2919/2923 4SM TSRA 
     FM292300 06010KT 5SM -RA BKN020CB OVC080 
     TEMPO 3000/3004 4SM TSRA 
     FM300500 06006KT 5SM HZ BKN015 BKN070 
     TEMPO 3011/3015 3SM BR HZ 
     FM301600 05010KT 6SM HZ SCT020 BKN070
       
TAF MMRX 291722Z 2918/3018 05010KT P6SM BKN020 BKN120 BKN250 
     FM300300 09008KT 6SM HZ SCT015 SCT250 
     TEMPO 3011/3015 4SM BR HZ BKN010 
     FM301500 10010KT P6SM BKN020
       
TAF MMSD 291657Z 2918/3018 13010KT P6SM SKC 
     FM300300 29006KT P6SM SKC 
     FM301700 13010KT P6SM SKC
       
TAF MMSL 291657Z 2918/3018 14010KT P6SM SKC 
     FM300300 30006KT P6SM SKC 
     FM301700 14010KT P6SM SKC
       
TAF COR MMSP 291822Z 2918/3024 12010KT P6SM BKN025 TX30/2920Z TN16/3012Z 
     TEMPO 2919/2923 4SM TSRA BKN025CB 
     FM300000 04010KT 5SM RA BKN020CB OVC080 
     PROB40 3000/3004 3SM RA 
     FM300600 00000KT 5SM HZ OVC015 
     FM301500 12010KT P6SM SCT020 
     PROB40 3020/3024 4SM TSRA BKN025CB
       
TAF MMTC 291637Z 2918/3018 06010KT P6SM SCT030 
     FM292100 12012KT P6SM BKN030 
     TEMPO 2922/3002 4SM TSRA BKN025CB 
     FM300200 06010KT 5SM RA BKN025 OVC080 
     FM300900 00000KT P6SM SCT020 BKN100
       
TAF MMTG 291646Z 2918/3018 24010KT 4SM HZ BKN015 OVC070 
     FM292000 28010G20KT 5SM VC RA BKN020 OVC080 
     TEMPO 2921/3001 3SM RA BKN015CB 
     FM300100 00000KT 5SM RA BKN020 OVC080 
     FM301200 00000KT 2SM BR BKN010 
     FM301600 00000KT 5SM HZ OVC020
       
TAF MMTJ 291652Z 2918/3024 00000KT 5SM HZ OVC015 TX20/2922Z TN14/3012Z 
     FM292000 28010KT P6SM SCT025 BKN250 
     FM300600 00000KT 5SM HZ OVC015 
     FM301800 28010KT P6SM BKN250
       
TAF AMD MMTM 291854Z 2919/3018 36030G40KT 1SM +RA OVC005CB 
     FM292000 34015KT 2SM TSRA BKN010CB OVC020 
     FM292100 03015KT 4SM RA BKN015 OVC070 
     FM292200 12012KT 5SM HZ BKN015 BKN080 
     PROB40 2922/3001 5SM RA 
     FM300300 00000KT 5SM HZ BKN015
       
TAF MMTO 291727Z 2918/3024 23012KT 5SM HZ BKN015 TX23/2920Z TN10/3012Z 
     FM292000 23010KT 5SM RA BKN020CB 
     TEMPO 2921/3001 3SM TSRA OVC015CB 
     FM300300 00000KT 5SM HZ BKN015 BKN070 
     TEMPO 3012/3016 2SM BR 
     FM301800 04012KT P6SM BKN020 
     PROB40 3020/3024 4SM TSRA BKN015CB
       
TAF COR MMTP 291823Z 2918/3024 22010KT 6SM RA BKN030 BKN100 
     TEMPO 2921/3001 3SM RA BKN020CB 
     FM300200 00000KT 4SM RA BKN020CB OVC080 
     FM300600 00000KT 5SM HZ SCT020 BKN100 
     PROB40 3014/3020 4SM RA BKN015CB
       
TAF MMUN 291646Z 2918/3024 12015KT P6SM SCT020 BKN300 TX31/2919Z TN27/3012Z 
     FM300100 12010KT P6SM SCT015 BKN250 
     FM301500 12015KT P6SM BKN015 
     FM301900 13015KT P6SM SCT015 BKN250
       
TAF MMVA 291712Z 2918/3018 20006KT P6SM SCT020 BKN070 OVC200 
     BECMG 2921/2922 5SM -RA SCT015CB BKN070 OVC200 
     TEMPO 2922/3002 3SM TSRA BKN015CB 
     FM300600 12005KT 3SM BR HZ BKN010 BKN040 OVC100 
     TEMPO 3010/3014 2SM BR HZ BKN006 OVC010 
     FM301500 13006KT 4SM HZ BKN010 OVC070
       
TAF MMVR 291727Z 2918/3018 20010KT 5SM VC RA BKN030 OVC070 TX32/2920Z TN24/3012Z 
     TEMPO 2921/3001 3SM TSRA BKN015CB 
     FM300100 04010KT 2SM RA BKN010 OVC030 
     FM300600 00000KT 5SM RA BKN020 OVC080 
     FM301200 18012KT 5SM HZ BKN015
       
TAF MMZC 291706Z 2918/3024 06010KT P6SM SCT030 TX31/2920Z TN12/3012Z 
     FM292100 04010KT P6SM BKN030 
     TEMPO 2923/3003 5SM TSRA BKN030CB 
     FM300300 00000KT 5SM RA BKN020 OVC080 
     FM300900 00000KT 5SM HZ SCT020 BKN250 
     FM302000 20015KT P6SM BKN030
       
TAF MMZH 291637Z 2918/3018 22010KT 6SM HZ BKN020 BKN080 BKN250 
     BECMG 2920/2921 5SM -RA BKN020CB 
     TEMPO 3000/3004 4SM TSRA 
     FM300600 08005KT 5SM -RA BKN015 BKN070 BKN250 
     FM301500 13010KT 6SM HZ SCT015 BKN070 BKN250
       
TAF MMZO 291706Z 2918/3018 23012KT P6SM SKC 
     FM300300 00000KT P6SM SKC
       
TAF MMBT 291637Z 2918/3018 12010KT 3SM RA BKN030 OVC070 
     TEMPO 2919/2923 1SM TSRA BKN010CB OVC070 
     FM292300 12008KT 5SM RA BKN040 OVC090 
     BECMG 3001/3002 08010KT BKN030CB OVC070 
     TEMPO 3010/3014 2SM TSRA
       
TAF MMVA 291712Z 2918/3018 20006KT P6SM SCT020 BKN070 OVC200 
     BECMG 2921/2922 5SM -RA SCT015CB BKN070 OVC200 
     TEMPO 2922/3002 3SM TSRA BKN015CB 
     FM300600 12005KT 3SM BR HZ BKN010 BKN040 OVC100 
     TEMPO 3010/3014 2SM BR HZ BKN006 OVC010 
     FM301500 13006KT 4SM HZ BKN010 OVC070
       
TAF MMUN 291646Z 2918/3024 12015KT P6SM SCT020 BKN300 TX31/2919Z TN27/3012Z 
     FM300100 12010KT P6SM SCT015 BKN250 
     FM301500 12015KT P6SM BKN015 
     FM301900 13015KT P6SM SCT015 BKN250
       
TAF MMCM 291712Z 2918/3018 12015KT P6SM SCT015 SCT090 BKN220 
     FM300300 10012KT P6SM SCT012 BKN220 
     TEMPO 3010/3014 BKN010 
     FM301500 11015KT P6SM BKN018 BKN120 BKN220 
     TEMPO 3015/3018 5SM RA
       
TAF MMCE 291712Z 2918/3018 13012KT 6SM HZ SCT020 BKN080 BKN200 
     BECMG 2919/2920 03015KT 
     FM300200 12012KT 6SM HZ SCT020CB BKN070 BKN200 
     TEMPO 3002/3006 2SM TSRA BKN010CB OVC070 
     FM300700 13015KT 5SM HZ BKN015 BKN120 BKN220 
     FM301600 10012KT 6SM HZ BKN020 BKN120 BKN220
       
TAF MMCN 291657Z 2918/3018 24010KT P6SM SCT300 
     FM300300 15006KT P6SM BKN260 
     FM301600 17010KT P6SM SKC
       
TAF AMD MMCV 291318Z 2913/3006 30005KT 2SM TSRA OVC020CB 
     FM291500 34012KT 5SM RA BKN020 OVC080 
     FM291700 02012KT P6SM BKN030 BKN080 
     TEMPO 2918/2922 5SM RA 
     FM292300 04010KT 5SM RA BKN020 OVC080
       
TAF MMCZ 291646Z 2918/3024 13015KT P6SM SCT015 BKN250 
     FM300300 12010KT P6SM BKN250 
     FM301400 12015KT P6SM BKN015 
     FM301800 12015KT P6SM SCT020 BKN250
       
TAF MMCB 291637Z 2918/3018 20008KT 6SM HZ BKN020 BKN140 
     TEMPO 2921/3001 5SM VC RA BKN020CB 
     FM300300 03005KT 6SM HZ SCT020 BKN080 BKN220 
     TEMPO 3010/3014 3SM BR HZ 
     FM301600 20006KT 5SM HZ SCT020 BKN140 BKN220
       
TAF MMCL 291652Z 2918/3018 12010KT P6SM SKC 
     FM292000 23010KT P6SM SKC 
     FM301200 09010KT 5SM HZ SCT015 
     TEMPO 3013/3017 BKN010
       
TAF MMLO 291648Z 2918/3018 06010KT 6SM HZ SCT030 
     TEMPO 2922/3002 5SM VC RA BKN030 
     FM300400 00000KT 6SM HZ SKC 
     TEMPO 3010/3014 4SM HZ BKN010 
     FM301600 07006KT 6SM HZ SKC
       
TAF AMD MMAN 291845Z 2919/3018 12015KT P6SM SCT020 BKN080 
     TEMPO 2922/3002 5SM TSRA BKN020CB 
     FM300300 00000KT 5SM HZ BKN015 
     FM300900 00000KT 2SM DZ BR OVC010 
     FM301600 12010KT 5SM HZ OVC015
       
TAF MMGL 291706Z 2918/3024 23012KT P6SM SKC TX33/2921Z TN17/3012Z 
     FM292100 24010G20KT P6SM SCT030 
     FM300100 00000KT P6SM SCT035 
     TEMPO 3002/3006 VC CB 
     FM301200 00000KT 5SM HZ SKC 
     FM302000 23012KT P6SM BKN030
       
TAF MMDO 291657Z 2918/3018 08010KT P6SM SCT030 BKN140 
     FM300300 00000KT P6SM SCT140 
     PROB40 3003/3006 SCT030CB 
     FM300700 00000KT P6SM SKC 
     FM301600 19008KT P6SM SKC
       
TAF MMTG 291646Z 2918/3018 24010KT 4SM HZ BKN015 OVC070 
     FM292000 28010G20KT 5SM VC RA BKN020 OVC080 
     TEMPO 2921/3001 3SM RA BKN015CB 
     FM300100 00000KT 5SM RA BKN020 OVC080 
     FM301200 00000KT 2SM BR BKN010 
     FM301600 00000KT 5SM HZ OVC020
       
TAF MMTJ 291652Z 2918/3024 00000KT 5SM HZ OVC015 TX20/2922Z TN14/3012Z 
     FM292000 28010KT P6SM SCT025 BKN250 
     FM300600 00000KT 5SM HZ OVC015 
     FM301800 28010KT P6SM BKN250
       
TAF MMMM 291706Z 2918/3024 20010KT P6SM BKN030 
     TEMPO 2923/3003 5SM TSRA BKN030CB 
     FM300400 00000KT P6SM SCT020 BKN080 
     FM301200 00000KT 5SM HZ SCT030 
     FM302100 20010KT 5SM VC RA BKN030CB 
     PROB40 3022/3024 4SM TSRA
       
TAF AMD MMTM 291854Z 2919/3018 36030G40KT 1SM +RA OVC005CB 
     FM292000 34015KT 2SM TSRA BKN010CB OVC020 
     FM292100 03015KT 4SM RA BKN015 OVC070 
     FM292200 12012KT 5SM HZ BKN015 BKN080 
     PROB40 2922/3001 5SM RA 
     FM300300 00000KT 5SM HZ BKN015
       
TAF MMVR 291727Z 2918/3018 20010KT 5SM VC RA BKN030 OVC070 TX32/2920Z TN24/3012Z 
     TEMPO 2921/3001 3SM TSRA BKN015CB 
     FM300100 04010KT 2SM RA BKN010 OVC030 
     FM300600 00000KT 5SM RA BKN020 OVC080 
     FM301200 18012KT 5SM HZ BKN015
       
TAF MMHO 291652Z 2918/3018 23012KT P6SM BKN250 
     FM300300 00000KT P6SM BKN250
       
TAF MMGM 291657Z 2918/3018 24010KT P6SM SCT300 
     FM300300 19006KT P6SM BKN260 
     FM301600 15008KT P6SM SKC
       
TAF AMD MMAA 292050Z 2921/3024 12010KT P6SM SCT015 SCT100 BKN300 TX30/3019Z TN24/3009Z 
     FM300000 09012KT P6SM BKN015CB OVC080 
     TEMPO 3000/3004 4SM TSRA 
     FM300400 00000KT 5SM RA SCT015CB BKN080 OVC300 
     FM301000 12012KT P6SM SCT020 BKN100 
     PROB40 3020/3024 5SM RA BKN015CB
       
TAF MMZC 291706Z 2918/3024 06010KT P6SM SCT030 TX31/2920Z TN12/3012Z 
     FM292100 04010KT P6SM BKN030 
     TEMPO 2923/3003 5SM TSRA BKN030CB 
     FM300300 00000KT 5SM RA BKN020 OVC080 
     FM300900 00000KT 5SM HZ SCT020 BKN250 
     FM302000 20015KT P6SM BKN030
       
TAF MMRX 291722Z 2918/3018 05010KT P6SM BKN020 BKN120 BKN250 
     FM300300 09008KT 6SM HZ SCT015 SCT250 
     TEMPO 3011/3015 4SM BR HZ BKN010 
     FM301500 10010KT P6SM BKN020
       
TAF MMLP 291652Z 2918/3018 20012KT P6SM SKC 
     FM292000 34012KT P6SM SKC 
     FM301200 23010KT P6SM SCT025
       
TAF MMMY 291637Z 2918/3024 04010KT 6SM HZ BKN020 BKN080 TX29/2920Z TN20/3012Z 
     FM292000 06010KT 5SM VC RA BKN015 OVC020 
     TEMPO 2922/3002 4SM TSRA BKN020CB 
     FM300300 04010KT 4SM DZ BR BKN010 OVC020 
     TEMPO 3010/3014 2SM DZ OVC010 
     FM301500 12010KT 5SM HZ OVC020 
     FM302100 12015KT P6SM BKN030
       
TAF COR MMCU 291844Z 2918/3018 05012KT P6SM BKN035 
     TEMPO 2920/2924 4SM TSRA BKN030CB 
     FM300100 06015KT 3SM TSRA BKN020CB OVC030 
     FM300600 12010KT 5SM RA OVC020 
     FM301200 12010KT 5SM HZ BKN025
       
TAF MMMZ 291652Z 2918/3024 18010KT P6SM SKC TX30/2920Z TN22/3012Z 
     FM300300 00000KT P6SM SKC 
     FM301200 00000KT 4SM HZ BKN015 
     FM301600 18010KT P6SM SKC
       
TAF MMML 291652Z 2918/3018 06010KT P6SM BKN200 
     FM300300 12010KT P6SM BKN250
       
TAF MMMA 291722Z 2918/3018 09010KT P6SM BKN025 BKN090 OVC200 
     BECMG 2920/2921 SCT025 BKN220 
     FM300300 08006KT P6SM SCT250 
     TEMPO 3011/3015 4SM BR HZ SCT010 
     FM301600 07010KT 6SM HZ SCT020
       
TAF MMPB 291637Z 2918/3018 20010KT P6SM -RA BKN020 BKN080 
     BECMG 2920/2921 5SM RA BKN020CB 
     TEMPO 2922/3002 3SM TSRA OVC015CB 
     FM300400 00000KT 5SM HZ BKN015 OVC070 
     TEMPO 3014/3018 4SM RA
       
TAF MMCP 291712Z 2918/3018 09010G20KT 6SM HZ SCT030 BKN090 BKN200 
     BECMG 2919/2920 35010G20KT 
     TEMPO 3001/3005 5SM TSRA BKN020CB 
     FM300700 12010KT 6SM HZ SCT015 BKN120 BKN220 
     BECMG 3016/3017 10012KT
       
TAF AMD MMQT 291832Z 2918/3018 26009KT 6SM -RA BKN020CB OVC100 
     TEMPO 2919/2923 4SM TSRA 
     FM292300 06010KT 5SM -RA BKN020CB OVC080 
     TEMPO 3000/3004 4SM TSRA 
     FM300500 06006KT 5SM HZ BKN015 BKN070 
     TEMPO 3011/3015 3SM BR HZ 
     FM301600 05010KT 6SM HZ SCT020 BKN070
       
TAF MMZH 291637Z 2918/3018 22010KT 6SM HZ BKN020 BKN080 BKN250 
     BECMG 2920/2921 5SM -RA BKN020CB 
     TEMPO 3000/3004 4SM TSRA 
     FM300600 08005KT 5SM -RA BKN015 BKN070 BKN250 
     FM301500 13010KT 6SM HZ SCT015 BKN070 BKN250
       
TAF MMAS 291648Z 2918/3018 07012KT P6SM SCT030 SCT220 
     BECMG 2920/2921 BKN030 BKN220 
     TEMPO 3000/3004 5SM TSRA BKN030CB 
     FM300600 10005KT P6SM BKN120 
     FM301600 10010KT P6SM SCT030 BKN120
       
TAF MMTO 291727Z 2918/3024 23012KT 5SM HZ BKN015 TX23/2920Z TN10/3012Z 
     FM292000 23010KT 5SM RA BKN020CB 
     TEMPO 2921/3001 3SM TSRA OVC015CB 
     FM300300 00000KT 5SM HZ BKN015 BKN070 
     TEMPO 3012/3016 2SM BR 
     FM301800 04012KT P6SM BKN020 
     PROB40 3020/3024 4SM TSRA BKN015CB
       
TAF MMMX 291727Z 2918/3024 34010KT P6SM BKN025 BKN080 TX26/2921Z TN14/3012Z 
     FM292000 02012KT 5SM VC RA BKN020CB OVC080 
     TEMPO 2920/2924 4SM TSRA 
     FM300000 04012KT 4SM TSRA BKN020CB OVC030 
     FM300400 06010KT 5SM HZ BKN020 OVC080 
     PROB40 3010/3014 6SM VC RA 
     FM301800 12010KT P6SM BKN020 BKN080 
     PROB40 3020/3024 4SM TSRA OVC015CB
       
TAF MMPR 291706Z 2918/3024 23012KT P6SM SKC TX28/2919Z TN20/3012Z 
     FM300600 00000KT P6SM BKN015 
     FM301400 00000KT P6SM SKC 
     FM301800 20010KT P6SM SKC
       
TAF MMMD 291646Z 2918/3024 12015KT P6SM BKN025 BKN080 OVC300 TX35/2920Z TN25/3012Z 
     FM292100 12012KT P6SM SCT030 BKN250 
     FM301200 00000KT 5SM HZ BKN015 
     FM301800 12015KT P6SM SCT025 BKN250
       
TAF AMD MMPN 292025Z 2920/3018 20010KT 5SM HZ OVC030CB 
     TEMPO 2921/3001 4SM TSRA 
     FM300300 00000KT 5SM RA BKN030 OVC100 
     FM300600 00000KT 5SM HZ SCT030 BKN100 
     TEMPO 3010/3014 3SM BR HZ BKN010 
     FM301600 14006KT P6SM SCT280
       
TAF MMLT 291657Z 2918/3018 15010KT P6SM SCT300 
     BECMG 2921/2922 BKN280 
     FM300300 26006KT P6SM BKN280 
     BECMG 3007/3008 SKC 
     FM301600 15008KT P6SM SKC
       
TAF MMSD 291657Z 2918/3018 13010KT P6SM SKC 
     FM300300 29006KT P6SM SKC 
     FM301700 13010KT P6SM SKC
       
TAF COR MMMT 291839Z 2918/3018 18010KT P6SM BKN020 BKN080 BKN200 
     BECMG 2920/2921 6SM RA BKN020CB BKN080 OVC200 
     TEMPO 3001/3005 2SM TSRA BKN010CB OVC070 
     FM300700 10005KT 3SM BR HZ BKN010 OVC070 
     FM301500 13006KT 5SM HZ BKN015 OVC070
       
TAF MMMV 291637Z 2918/3018 06010KT P6SM BKN040 
     TEMPO 2921/3001 4SM TSRA BKN030CB 
     FM300600 00000KT P6SM SCT040 BKN250 
     TEMPO 3012/3016 BKN020
       
TAF MMPG 291722Z 2918/3018 10010KT P6SM BKN025 BKN250 
     PROB40 2920/2924 6SM RA 
     FM300300 10006KT 6SM HZ SCT030 BKN250 
     BECMG 3006/3007 3SM -RA BR BKN010 OVC030 
     TEMPO 3011/3015 1SM RA BR BKN004 OVC010 
     FM301600 12010KT 5SM HZ BKN012 OVC030
       
TAF MMIO 291637Z 2918/3018 02010KT P6SM SCT040 BKN250 
     TEMPO 2922/3002 5SM TSRA BKN030CB 
     FM300900 00000KT 2SM BR BKN010 
     FM301400 12010KT 5SM HZ SCT020 BKN250
       
TAF MMZO 291706Z 2918/3018 23012KT P6SM SKC 
     FM300300 00000KT P6SM SKC
       
TAF COR MMSP 291822Z 2918/3024 12010KT P6SM BKN025 TX30/2920Z TN16/3012Z 
     TEMPO 2919/2923 4SM TSRA BKN025CB 
     FM300000 04010KT 5SM RA BKN020CB OVC080 
     PROB40 3000/3004 3SM RA 
     FM300600 00000KT 5SM HZ OVC015 
     FM301500 12010KT P6SM SCT020 
     PROB40 3020/3024 4SM TSRA BKN025CB
       
TAF MMPS 291637Z 2918/3018 15010KT 6SM -RA BKN030 OVC070 
     TEMPO 2919/2923 3SM TSRA BKN020CB OVC080 
     FM300300 10010KT 5SM RA BKN015CB OVC080 
     TEMPO 3005/3009 2SM TSRA BKN010CB OVC070 
     FM301100 09008KT 5SM -RA BKN030 OVC070
       
TAF MMNL 291722Z 2918/3018 07010KT P6SM BKN020 BKN200 
     FM300200 13010KT P6SM SCT020 BKN220 
     TEMPO 3011/3015 4SM BR HZ SCT010 BKN220 
     FM301600 11010KT P6SM BKN020 BKN250
       
TAF COR MMTP 291823Z 2918/3024 22010KT 6SM RA BKN030 BKN100 
     TEMPO 2921/3001 3SM RA BKN020CB 
     FM300200 00000KT 4SM RA BKN020CB OVC080 
     FM300600 00000KT 5SM HZ SCT020 BKN100 
     PROB40 3014/3020 4SM RA BKN015CB
       
TAF MMEP 291648Z 2918/3018 33010KT P6SM SKC 
     FM300300 07005KT P6SM SKC 
     BECMG 3010/3011 3SM BR HZ 
     FM301500 30006KT P6SM SKC
       
TAF MMTC 291637Z 2918/3018 06010KT P6SM SCT030 
     FM292100 12012KT P6SM BKN030 
     TEMPO 2922/3002 4SM TSRA BKN025CB 
     FM300200 06010KT 5SM RA BKN025 OVC080 
     FM300900 00000KT P6SM SCT020 BKN100
       
TAF MMLM 291657Z 2918/3018 23012KT P6SM SKC 
     FM300300 16006KT P6SM SCT250 
     BECMG 3010/3011 3SM BR HZ SCT010 
     TEMPO 3011/3015 1/2SM FG VV002 
     FM301600 16008KT P6SM SKC
       
TAF MMOX 291637Z 2918/3018 16008KT 6SM -RA BKN020 OVC070 
     TEMPO 2921/3001 3SM TSRA BKN010CB OVC070 
     FM300300 00000KT 4SM RA BKN015 OVC070 
     TEMPO 3003/3007 3SM TSRA BKN015CB 
     FM301500 16006KT 6SM -RA HZ BKN020 BKN070 OVC180